Share

Yacuiba, Bolivia

8:11 AM BOT on April 24, 2014 (GMT -0400)
Yacuiba (SLYA) Elev 2116 ft | 21.96 °S, 63.65 °W | Change Station

Current weather conditions updated 1 hour ago

Overcast
Overcast
66 °F
Feels Like 66 °F
N
0
Wind Variable Wind from North
Sunrise 6:30 AM
Sunset 5:54 PM
Moon Waning Crescent

Today is forecast to be nearly the same temperature as yesterday.

Pressure 30.15 in
Visibility 6.2 miles
Clouds Scattered Clouds 1700 ft
Overcast 7000 ft
Dew Point 64 °F
Humidity 94%
Rainfall 0.00 in
Snow Depth Not available.
UV 0 out of 16
Pollen Not available.
Air Quality Not available.
Flu Activity Not available.
METAR SLYA 241100Z 00000KT 9999 SCT017 OVC070 19/18 Q1021

More Conditions Fewer Conditions

Pressure 30.15 in
Visibility 6.2 miles
Clouds Scattered Clouds 1700 ft
Overcast 7000 ft
Dew Point 64 °F
Humidity 94%
Rainfall 0.00 in
Snow Depth Not available.
UV 0 out of 16
Pollen Not available.
Air Quality Not available.
Flu Activity Not available.
METAR SLYA 241100Z 00000KT 9999 SCT017 OVC070 19/18 Q1021

More Conditions Fewer Conditions

10-Day Weather Forecast

Almanac

Astronomy

Apr. 24, 2014 Rise Set
Actual Time 6:30 AM BOT 5:54 PM BOT
Civil Twilight 6:07 AM BOT 6:17 PM BOT
Nautical Twilight 5:41 AM BOT 6:44 PM BOT
Astronomical Twilight 5:14 AM BOT 7:10 PM BOT
Moon 1:54 AM BOT 2:39 PM BOT
Length of Visible Light 12h 10m
Length of Day
11h 24m
Tomorrow will be 1m 6s shorter.
Waning Crescent, 26% of the Moon is Illuminated
Today
Waning Crescent
Apr 29
New
May 6
First Quarter
May 14
Full
May 21
Last Quarter

Yesterday's Extremes

Country Highs Country Lows

Community

  • Stacked
    Stacked
  • clouds approaching Red Sox Nation
    clouds approaching Red Sox Nation
  • Balance
    Balance
  • Nestled In
    Nestled In
  • Stunning Sunrise
    Stunning Sunrise

WunderPhotos

Upload Photos

1,704,591 photos uploaded!

WunderBlogs® & News

Nearby

Snow Depth

Not available.

Coastal Water Temperatures

Place Temperature
No Stations Reporting

Earthquake Activity

City Distance Mag. Time & Date
No recent earthquake activity has been reported nearby.
Minimum magnitude displayed is 2.5.

Nearby Weather Stations

There are no personal weather stations in this area.

What do you think?

We're not finished. Please let us know what you like, what you don't like, and what you are still missing.